Terminal Aerodrome Forecast
Issued by NWS Jacksonville, FL

Home | Current Version | Previous Version | Text Only | Print | Product List | Glossary On
Versions: 1 2 3 4 5 6 7 8 9 10 11 12 13 14 15 16 17 18 19 20
040
FTUS42 KJAX 130525
TAFSSI
TAF
KSSI 130525Z 1306/1406 28008KT P6SM SKC
     FM130900 32007KT P6SM SKC
     FM131400 35010G18KT P6SM SKC
     FM132000 03008KT P6SM SKC
     FM140000 VRB03KT P6SM SKC=

USA.gov is the U.S. government's official web portal to all federal, state and local government web resources and services.